Time;durP1;ratioP1;P1;durP2;ratioP2;P2;SDS_P1;SDS_P2;PMS_P1;PMS_P2;Temp;Humidity;BMP_temperature;BMP_pressure;BME280_temperature;BME280_humidity;BME280_pressure;Samples;Min_cycle;Max_cycle;Signal;HPM_P1;HPM_P2
2022/02/18 00:02:15;;;;;;;10.53;1.63;;;;;;;3.95;81.50;99374.02;1653771;85;20989;-81
2022/02/18 00:04:41;;;;;;;7.97;1.27;;;;;;;3.91;81.42;99373.63;1677367;85;21579;-81
2022/02/18 00:07:07;;;;;;;7.70;1.60;;;;;;;3.87;81.45;99366.41;1689580;84;20898;-81
2022/02/18 00:09:34;;;;;;;7.70;1.42;;;;;;;3.81;81.45;99388.19;1668022;84;21450;-80
2022/02/18 00:12:00;;;;;;;10.38;1.45;;;;;;;3.76;81.44;99380.14;1668071;84;20982;-80
2022/02/18 00:14:26;;;;;;;5.10;1.17;;;;;;;3.72;81.48;99385.71;1684597;83;21742;-80
2022/02/18 00:16:54;;;;;;;6.55;2.08;;;;;;;3.67;81.43;99397.67;1665528;84;22186;-80
2022/02/18 00:19:20;;;;;;;8.10;1.15;;;;;;;3.64;81.44;99388.75;1688846;84;20890;-81
2022/02/18 00:21:48;;;;;;;6.35;1.45;;;;;;;3.60;81.47;99385.41;1678324;84;21450;-80
2022/02/18 00:24:14;;;;;;;5.10;0.80;;;;;;;3.56;81.47;99405.45;1653640;85;20949;-80
2022/02/18 00:26:40;;;;;;;6.72;1.52;;;;;;;3.53;81.46;99402.07;1678989;84;21434;-80
2022/02/18 00:29:09;;;;;;;6.00;1.27;;;;;;;3.52;81.49;99406.77;1687579;83;21437;-79
2022/02/18 00:31:35;;;;;;;6.95;1.30;;;;;;;3.51;81.50;99406.34;1648659;85;21410;-79
2022/02/18 00:34:02;;;;;;;7.30;1.52;;;;;;;3.51;81.53;99406.34;1648601;85;21418;-80
2022/02/18 00:36:29;;;;;;;9.55;0.98;;;;;;;3.50;81.53;99406.77;1655443;85;21455;-80
2022/02/18 00:38:55;;;;;;;7.30;1.40;;;;;;;3.49;81.54;99405.08;1674597;85;21402;-80
2022/02/18 00:41:22;;;;;;;4.60;1.82;;;;;;;3.49;81.47;99428.50;1648733;85;21450;-80
2022/02/18 00:43:48;;;;;;;9.05;1.98;;;;;;;3.47;81.47;99429.80;1624513;87;21019;-80
2022/02/18 00:46:14;;;;;;;7.55;1.37;;;;;;;3.44;81.43;99436.63;1667871;85;20898;-80
2022/02/18 00:48:40;;;;;;;6.90;1.80;;;;;;;3.43;81.46;99419.59;1679157;84;21414;-80
2022/02/18 00:51:06;;;;;;;8.55;1.82;;;;;;;3.41;81.50;99443.03;1648839;85;21503;-80
2022/02/18 00:53:33;;;;;;;9.43;1.52;;;;;;;3.40;81.52;99452.41;1663686;85;20941;-80
2022/02/18 00:56:00;;;;;;;4.05;1.00;;;;;;;3.40;81.52;99456.23;1658341;85;21414;-80
2022/02/18 00:58:26;;;;;;;6.78;1.62;;;;;;;3.40;81.52;99457.52;1659411;85;21466;-80
2022/02/18 01:00:52;;;;;;;6.30;1.50;;;;;;;3.40;81.58;99457.52;1668425;85;21607;-79
2022/02/18 01:03:22;;;;;;;8.70;1.10;;;;;;;3.41;81.57;99457.94;1660538;85;21395;-80
2022/02/18 01:05:49;;;;;;;13.35;1.82;;;;;;;3.42;81.51;99462.62;1644956;86;21402;-80
2022/02/18 01:08:17;;;;;;;5.58;1.05;;;;;;;3.43;81.53;99462.61;1653251;85;21442;-80
2022/02/18 01:10:50;;;;;;;7.67;1.37;;;;;;;3.43;81.48;99471.98;1675081;85;20957;-80
2022/02/18 01:13:16;;;;;;;7.28;1.30;;;;;;;3.42;81.50;99465.17;1678333;84;21495;-80
2022/02/18 01:15:42;;;;;;;7.93;1.60;;;;;;;3.43;81.54;99471.98;1663250;85;20882;-80
2022/02/18 01:18:10;;;;;;;14.23;1.85;;;;;;;3.44;81.51;99471.12;1676196;84;20934;-80
2022/02/18 01:20:36;;;;;;;12.35;2.33;;;;;;;3.46;81.54;99484.31;1669497;84;21429;-80
2022/02/18 01:23:02;;;;;;;7.90;2.10;;;;;;;3.47;81.54;99489.84;1648653;85;21453;-80
2022/02/18 01:25:28;;;;;;;10.78;2.10;;;;;;;3.49;81.50;99490.69;1648725;85;20958;-80
2022/02/18 01:27:58;;;;;;;6.67;1.70;;;;;;;3.51;81.49;99509.41;1667256;85;21434;-81
2022/02/18 01:30:26;;;;;;;11.63;3.37;;;;;;;3.52;81.50;99498.77;1664140;84;21437;-80
2022/02/18 01:32:53;;;;;;;9.30;2.02;;;;;;;3.55;81.49;99517.92;1684697;83;20918;-80
2022/02/18 01:35:20;;;;;;;11.50;2.37;;;;;;;3.57;81.49;99519.61;1666427;83;20934;-81
2022/02/18 01:37:48;;;;;;;10.80;2.05;;;;;;;3.58;81.46;99511.08;1709641;83;20965;-80
2022/02/18 01:40:14;;;;;;;10.32;1.82;;;;;;;3.61;81.48;99507.23;1700174;83;21050;-79
2022/02/18 01:42:42;;;;;;;9.53;1.70;;;;;;;3.66;81.44;99511.86;1693804;83;20863;-80
2022/02/18 01:45:09;;;;;;;10.93;2.15;;;;;;;3.70;81.46;99515.25;1682909;83;20968;-80
2022/02/18 01:47:36;;;;;;;7.72;2.10;;;;;;;3.74;81.45;99525.02;1697526;83;21398;-80
2022/02/18 01:50:02;;;;;;;7.08;1.92;;;;;;;3.75;81.41;99509.67;1704714;83;20914;-80
2022/02/18 01:52:32;;;;;;;7.12;1.72;;;;;;;3.77;81.37;99536.52;1658945;85;20977;-80
2022/02/18 01:54:59;;;;;;;14.33;2.42;;;;;;;3.80;81.36;99540.33;1697701;83;20957;-80
2022/02/18 01:57:25;;;;;;;;;;;;;;;3.81;81.32;99542.03;1663570;85;20970;-80
2022/02/18 01:59:52;;;;;;;18.40;2.00;;;;;;;3.84;81.27;99547.12;1657018;85;20102;-80
2022/02/18 02:02:18;;;;;;;10.40;2.20;;;;;;;3.83;81.30;99542.44;1708817;82;20879;-80
2022/02/18 02:04:46;;;;;;;8.30;2.22;;;;;;;3.84;81.16;99554.37;1676565;85;20996;-80
2022/02/18 02:07:13;;;;;;;11.80;2.02;;;;;;;3.90;81.30;99544.10;1688276;82;20989;-80
2022/02/18 02:09:39;;;;;;;12.07;1.77;;;;;;;3.95;81.32;99551.75;1683717;83;21069;-80
2022/02/18 02:12:06;;;;;;;12.58;1.80;;;;;;;3.97;81.27;99550.87;1684055;83;20969;-80
2022/02/18 02:14:32;;;;;;;9.93;1.90;;;;;;;3.94;81.12;99544.50;1707011;83;26107;-80
2022/02/18 02:16:58;;;;;;;12.33;2.60;;;;;;;3.94;81.12;99544.50;1658649;85;21417;-80
2022/02/18 02:19:24;;;;;;;9.73;1.80;;;;;;;4.07;81.09;99555.94;1684096;83;21097;-81
2022/02/18 02:21:55;;;;;;;9.80;1.65;;;;;;;4.09;81.05;99563.17;1692509;83;21120;-81
2022/02/18 02:24:21;;;;;;;8.85;1.77;;;;;;;4.09;81.06;99555.50;1673763;85;21095;-81
2022/02/18 02:26:48;;;;;;;14.83;2.20;;;;;;;4.08;80.90;99553.37;1684729;83;22312;-81
2022/02/18 02:29:15;;;;;;;11.08;1.92;;;;;;;4.07;80.98;99554.66;1683825;83;21120;-80
2022/02/18 02:31:41;;;;;;;7.42;1.62;;;;;;;4.06;81.01;99550.40;1690265;84;20918;-80
2022/02/18 02:34:08;;;;;;;9.25;1.60;;;;;;;4.05;80.90;99557.23;1654406;86;20965;-81
2022/02/18 02:36:35;;;;;;;6.62;1.15;;;;;;;4.03;80.99;99550.42;1638270;86;20899;-80
2022/02/18 02:39:02;;;;;;;8.18;1.40;;;;;;;4.01;80.89;99559.38;1637512;86;20954;-80
2022/02/18 02:41:28;;;;;;;9.55;2.05;;;;;;;3.99;80.89;99563.23;1646023;86;20958;-81
2022/02/18 02:43:54;;;;;;;15.37;2.00;;;;;;;3.97;80.90;99575.61;1652379;85;20989;-80
2022/02/18 02:46:20;;;;;;;6.77;1.53;;;;;;;3.94;80.78;99582.87;1649069;86;20927;-80
2022/02/18 02:48:46;;;;;;;10.28;1.55;;;;;;;3.95;80.93;99590.11;1638520;85;21132;-80
2022/02/18 02:51:12;;;;;;;10.60;1.70;;;;;;;3.94;80.85;99592.25;1647811;86;20970;-80
2022/02/18 02:53:40;;;;;;;12.85;1.80;;;;;;;3.78;80.78;99564.63;1639627;86;21758;-80
2022/02/18 02:56:08;;;;;;;8.63;1.25;;;;;;;3.90;80.81;99596.95;1643404;86;21026;-80
2022/02/18 02:58:35;;;;;;;;;;;;;;;3.88;80.86;99605.06;1658865;84;21143;-80
2022/02/18 03:01:01;;;;;;;11.33;1.65;;;;;;;3.85;80.68;99597.41;1651156;86;20268;-81
2022/02/18 03:03:27;;;;;;;7.35;1.57;;;;;;;3.86;80.75;99614.45;1645707;85;21310;-80
2022/02/18 03:05:53;;;;;;;12.40;1.77;;;;;;;3.85;80.71;99617.86;1641729;86;20982;-80
2022/02/18 03:08:19;;;;;;;17.43;2.67;;;;;;;3.83;80.72;99628.10;1657888;86;20947;-80
2022/02/18 03:11:14;;;;;;;7.78;1.35;;;;;;;3.81;80.62;99626.41;1645128;85;21089;-80
2022/02/18 03:13:14;;;;;;;9.70;2.27;;;;;;;3.79;80.69;99623.00;1627310;86;21371;-80
2022/02/18 03:15:40;;;;;;;8.73;1.70;;;;;;;3.79;80.67;99643.03;1645462;86;21085;-80
2022/02/18 03:18:06;;;;;;;7.42;1.70;;;;;;;3.77;80.66;99651.14;1643155;84;21159;-80
2022/02/18 03:20:33;;;;;;;7.47;1.40;;;;;;;3.74;80.63;99661.38;1641569;86;21057;-80
2022/02/18 03:22:59;;;;;;;11.78;2.02;;;;;;;3.73;80.60;99663.51;1656788;84;21670;-80
2022/02/18 03:25:25;;;;;;;5.33;1.57;;;;;;;3.71;80.58;99678.00;1640708;86;21073;-80
2022/02/18 03:27:51;;;;;;;5.87;1.20;;;;;;;3.71;80.51;99668.20;1632901;86;21086;-80
2022/02/18 03:30:17;;;;;;;8.13;1.60;;;;;;;3.72;80.60;99682.27;1653232;84;20953;-80
2022/02/18 03:32:44;;;;;;;6.67;1.77;;;;;;;3.73;80.58;99677.57;1699129;82;21048;-81
2022/02/18 03:35:10;;;;;;;11.18;1.65;;;;;;;3.76;80.52;99689.06;1702588;83;21100;-80
2022/02/18 03:37:36;;;;;;;6.33;1.60;;;;;;;3.78;80.57;99692.47;1677011;85;21072;-80
2022/02/18 03:40:03;;;;;;;6.83;1.70;;;;;;;3.80;80.52;99688.20;1684458;83;21021;-80
2022/02/18 03:42:32;;;;;;;11.08;2.70;;;;;;;3.82;80.50;99692.88;1703929;83;21045;-80
2022/02/18 03:44:58;;;;;;;15.07;2.17;;;;;;;3.86;80.57;99691.16;1694122;83;20917;-80
2022/02/18 03:47:24;;;;;;;5.43;1.67;;;;;;;3.88;80.53;99701.81;1698109;83;21819;-80
2022/02/18 03:49:54;;;;;;;9.18;1.80;;;;;;;3.90;80.56;99706.49;1702471;83;20871;-80
2022/02/18 03:52:19;;;;;;;5.20;1.40;;;;;;;3.91;80.46;99706.91;1695729;83;20867;-80
2022/02/18 03:54:45;;;;;;;10.10;2.10;;;;;;;3.94;80.47;99712.02;1696897;83;20894;-81
2022/02/18 03:57:12;;;;;;;6.50;1.25;;;;;;;3.96;80.46;99723.09;1707512;83;20938;-81
2022/02/18 03:59:38;;;;;;;8.95;1.72;;;;;;;3.98;80.44;99714.98;1673622;85;20922;-81
2022/02/18 04:02:04;;;;;;;8.90;1.77;;;;;;;3.99;80.38;99730.75;1711988;83;20930;-80
2022/02/18 04:04:31;;;;;;;10.32;1.95;;;;;;;3.99;80.38;99725.64;1696239;83;20902;-80
2022/02/18 04:06:57;;;;;;;8.83;1.80;;;;;;;3.99;80.33;99731.19;1686218;83;20949;-80
2022/02/18 04:09:23;;;;;;;6.47;1.50;;;;;;;3.98;80.33;99717.55;1701964;83;21618;-80
2022/02/18 04:11:49;;;;;;;10.10;1.63;;;;;;;3.96;80.27;99725.66;1693388;83;20862;-80
2022/02/18 04:14:15;;;;;;;5.50;2.37;;;;;;;3.95;80.21;99735.89;1708872;83;21584;-80
2022/02/18 04:16:41;;;;;;;11.97;1.77;;;;;;;3.95;80.25;99732.05;1672914;85;21682;-80
2022/02/18 04:19:19;;;;;;;11.88;1.70;;;;;;;3.93;80.28;99725.66;1688908;83;20930;-80
2022/02/18 04:21:45;;;;;;;8.47;1.43;;;;;;;3.92;80.32;99732.06;1677821;85;20862;-80
2022/02/18 04:24:11;;;;;;;8.98;1.85;;;;;;;3.90;80.26;99728.23;1692396;82;20905;-80
2022/02/18 04:26:38;;;;;;;10.30;1.57;;;;;;;3.90;80.27;99731.22;1678554;85;20890;-80
2022/02/18 04:29:04;;;;;;;8.68;1.67;;;;;;;3.86;80.24;99735.91;1668332;83;20966;-80
2022/02/18 04:31:30;;;;;;;13.25;2.62;;;;;;;3.85;80.23;99738.05;1693603;83;20902;-80
2022/02/18 04:33:58;;;;;;;8.40;1.42;;;;;;;3.81;80.20;99749.14;1686615;83;20921;-80
2022/02/18 04:36:24;;;;;;;10.25;1.60;;;;;;;3.79;80.24;99755.53;1688384;83;20938;-80
2022/02/18 04:38:51;;;;;;;8.38;1.60;;;;;;;3.78;80.24;99746.16;1708341;83;20898;-80
2022/02/18 04:41:18;;;;;;;6.78;1.72;;;;;;;3.76;80.24;99756.82;1709912;83;20910;-80
2022/02/18 04:43:44;;;;;;;10.63;1.70;;;;;;;3.77;80.24;99757.24;1694887;83;20870;-80
2022/02/18 04:46:10;;;;;;;7.25;1.35;;;;;;;3.78;80.27;99758.95;1675971;85;21035;-80
2022/02/18 04:48:52;;;;;;;8.30;1.57;;;;;;;3.80;80.29;99760.22;1685795;83;20906;-80
2022/02/18 04:51:19;;;;;;;9.35;2.55;;;;;;;3.80;80.25;99760.22;1695054;83;20942;-80
2022/02/18 04:53:45;;;;;;;11.33;2.60;;;;;;;3.78;80.16;99758.95;1702967;83;20949;-80
2022/02/18 04:56:11;;;;;;;7.47;1.62;;;;;;;3.76;80.17;99759.80;1693126;83;20886;-80
2022/02/18 04:58:38;;;;;;;12.78;3.15;;;;;;;3.76;80.15;99762.36;1673091;85;20960;-80
2022/02/18 05:01:06;;;;;;;9.58;1.77;;;;;;;3.74;80.14;99764.07;1700127;83;20937;-80
2022/02/18 05:03:33;;;;;;;9.63;1.95;;;;;;;3.74;80.12;99767.48;1703706;83;20871;-77
2022/02/18 05:05:59;;;;;;;8.88;1.67;;;;;;;3.74;80.14;99768.76;1711334;83;20929;-79
2022/02/18 05:08:25;;;;;;;7.97;1.42;;;;;;;3.73;80.12;99772.17;1652786;85;20905;-78
2022/02/18 05:10:51;;;;;;;6.70;1.67;;;;;;;3.71;80.08;99767.48;1699176;83;20946;-80
2022/02/18 05:13:17;;;;;;;8.08;2.33;;;;;;;3.70;80.08;99758.11;1696612;83;20870;-80
2022/02/18 05:15:43;;;;;;;10.03;1.80;;;;;;;3.68;80.07;99766.64;1709628;83;20890;-79
2022/02/18 05:18:09;;;;;;;14.55;2.10;;;;;;;3.64;80.05;99780.70;1695231;83;20914;-80
2022/02/18 05:20:35;;;;;;;9.18;2.00;;;;;;;3.62;80.03;99777.75;1698327;83;20937;-80
2022/02/18 05:23:01;;;;;;;8.70;1.67;;;;;;;3.60;80.01;99785.42;1709904;83;20867;-80
2022/02/18 05:25:32;;;;;;;8.23;1.80;;;;;;;3.59;80.06;99784.15;1699927;83;37459;-80
2022/02/18 05:27:59;;;;;;;14.30;2.37;;;;;;;3.56;80.02;99787.55;1678754;83;20906;-80
2022/02/18 05:30:26;;;;;;;8.48;1.30;;;;;;;3.53;79.98;99785.00;1670792;84;20967;-80
2022/02/18 05:32:51;;;;;;;11.45;2.47;;;;;;;3.50;80.01;99785.00;1665564;85;20941;-80
2022/02/18 05:35:18;;;;;;;9.83;1.75;;;;;;;3.47;80.00;99786.71;1653652;85;20976;-80
2022/02/18 05:37:44;;;;;;;8.33;1.72;;;;;;;3.45;80.03;99782.88;1655109;85;20949;-80
2022/02/18 05:40:10;;;;;;;10.27;1.90;;;;;;;3.42;79.95;99785.44;1677645;85;20873;-80
2022/02/18 05:42:36;;;;;;;9.93;2.02;;;;;;;3.39;79.97;99788.42;1669905;85;20944;-80
2022/02/18 05:45:03;;;;;;;9.60;1.82;;;;;;;3.35;79.94;99782.88;1658271;85;20908;-80
2022/02/18 05:47:35;;;;;;;11.10;2.50;;;;;;;3.32;79.95;99779.90;1662085;84;20944;-78
2022/02/18 05:50:05;;;;;;;9.43;1.95;;;;;;;3.30;79.97;99773.52;1671399;83;20969;-80
2022/02/18 05:52:31;;;;;;;10.68;1.72;;;;;;;3.30;79.95;99784.16;1649529;85;20933;-80
2022/02/18 05:54:57;;;;;;;9.30;1.98;;;;;;;3.27;79.95;99795.23;1656750;85;20968;-80
2022/02/18 05:57:23;;;;;;;11.70;1.85;;;;;;;3.26;79.92;99795.23;1668508;85;20908;-80
2022/02/18 05:59:49;;;;;;;14.13;2.60;;;;;;;3.25;79.91;99799.91;1662146;85;20980;-80
2022/02/18 06:02:15;;;;;;;6.40;1.67;;;;;;;3.22;79.92;99802.46;1653909;85;20900;-80
2022/02/18 06:04:41;;;;;;;10.27;2.23;;;;;;;3.20;79.91;99805.02;1658552;85;21686;-80
2022/02/18 06:07:07;;;;;;;9.68;1.85;;;;;;;3.19;79.89;99816.51;1666889;85;20875;-79
2022/02/18 06:09:33;;;;;;;12.88;2.05;;;;;;;3.19;79.91;99812.67;1659873;85;20925;-79
2022/02/18 06:11:59;;;;;;;15.47;1.67;;;;;;;3.18;79.89;99810.97;1670457;85;20882;-80
2022/02/18 06:14:25;;;;;;;10.00;1.67;;;;;;;3.16;79.89;99816.51;1673025;85;20901;-80
2022/02/18 06:16:51;;;;;;;8.73;1.80;;;;;;;3.13;79.84;99818.63;1665069;84;21002;-80
2022/02/18 06:19:18;;;;;;;11.15;2.17;;;;;;;3.12;79.84;99819.94;1660838;85;20911;-80
2022/02/18 06:21:44;;;;;;;12.28;2.55;;;;;;;3.09;79.83;99826.32;1671549;85;21000;-80
2022/02/18 06:24:11;;;;;;;11.25;2.00;;;;;;;3.07;79.82;99845.47;1658590;85;21019;-79
2022/02/18 06:26:37;;;;;;;10.82;2.00;;;;;;;3.06;79.85;99848.02;1669938;85;20942;-79
2022/02/18 06:29:03;;;;;;;6.53;2.02;;;;;;;3.07;79.88;99853.56;1663126;85;20956;-79
2022/02/18 06:31:30;;;;;;;10.15;2.10;;;;;;;3.08;79.86;99859.09;1675279;85;20943;-79
2022/02/18 06:33:56;;;;;;;12.63;2.17;;;;;;;3.08;79.86;99861.22;1636310;86;20983;-79
2022/02/18 06:36:22;;;;;;;8.80;2.00;;;;;;;3.10;79.85;99871.02;1676115;85;20971;-79
2022/02/18 06:38:48;;;;;;;13.10;2.42;;;;;;;3.11;79.86;99871.45;1680854;85;20946;-78
2022/02/18 06:41:14;;;;;;;16.93;2.70;;;;;;;3.15;79.87;99876.11;1679553;85;20963;-78
2022/02/18 06:43:41;;;;;;;13.25;2.70;;;;;;;3.18;79.88;99878.66;1679144;85;20983;-78
2022/02/18 06:46:07;;;;;;;8.98;1.82;;;;;;;3.22;79.90;99875.27;1678710;85;21821;-79
2022/02/18 06:48:33;;;;;;;9.93;2.17;;;;;;;3.24;79.85;99865.48;1681011;85;21170;-79
2022/02/18 06:51:00;;;;;;;7.12;2.00;;;;;;;3.27;79.85;99873.15;1679088;85;20948;-78
2022/02/18 06:53:27;;;;;;;10.38;2.58;;;;;;;3.28;79.81;99879.97;1666877;85;20908;-78
2022/02/18 06:55:53;;;;;;;15.40;2.37;;;;;;;3.28;79.77;99883.80;1677405;85;20944;-77
2022/02/18 06:58:19;;;;;;;10.98;2.50;;;;;;;3.31;79.78;99891.89;1680235;85;20950;-77
2022/02/18 07:00:45;;;;;;;12.50;2.27;;;;;;;3.32;79.77;99891.05;1672950;83;20976;-77
2022/02/18 07:03:11;;;;;;;8.30;2.25;;;;;;;3.38;79.70;99897.44;1652782;85;20983;-78
2022/02/18 07:05:37;;;;;;;16.40;2.92;;;;;;;3.46;79.83;99916.20;1672157;85;21700;-78
2022/02/18 07:08:04;;;;;;;12.70;2.85;;;;;;;3.55;79.83;99907.69;1672538;85;20972;-78
2022/02/18 07:10:30;;;;;;;8.43;1.98;;;;;;;3.62;79.78;99911.53;1678738;85;20975;-79
2022/02/18 07:12:56;;;;;;;10.47;1.90;;;;;;;3.70;79.76;99920.45;1682579;85;20947;-78
2022/02/18 07:15:24;;;;;;;13.35;2.30;;;;;;;3.78;79.73;99917.91;1684397;85;21635;-78
2022/02/18 07:17:50;;;;;;;14.15;2.17;;;;;;;3.85;79.78;99917.05;1673305;85;20968;-77
2022/02/18 07:20:17;;;;;;;15.23;2.50;;;;;;;3.94;79.75;99901.28;1658828;85;20979;-77
2022/02/18 07:22:44;;;;;;;12.28;2.42;;;;;;;4.03;79.68;99910.66;1673818;85;20912;-77
2022/02/18 07:25:12;;;;;;;12.55;2.72;;;;;;;4.11;79.69;99910.65;1675537;85;21409;-77
2022/02/18 07:27:38;;;;;;;11.40;2.45;;;;;;;4.19;79.63;99898.23;1654268;84;20983;-77
2022/02/18 07:30:06;;;;;;;12.28;3.10;;;;;;;4.26;79.63;99915.28;1680830;85;20932;-77
2022/02/18 07:32:32;;;;;;;10.35;3.20;;;;;;;4.32;79.63;99908.03;1656387;85;21010;-77
2022/02/18 07:34:58;;;;;;;12.82;2.90;;;;;;;4.38;79.64;99902.05;1652453;86;20994;-77
2022/02/18 07:37:24;;;;;;;15.35;3.47;;;;;;;4.42;79.63;99908.43;1642117;86;20949;-77
2022/02/18 07:39:50;;;;;;;10.05;2.30;;;;;;;4.48;79.53;99908.84;1701904;83;20949;-77
2022/02/18 07:42:16;;;;;;;12.00;2.80;;;;;;;4.54;79.60;99899.87;1660045;85;20933;-77
2022/02/18 07:44:42;;;;;;;9.88;2.37;;;;;;;4.58;79.61;99910.09;1697073;83;20898;-77
2022/02/18 07:47:09;;;;;;;7.40;2.03;;;;;;;4.61;79.56;99920.33;1697911;83;20961;-77
2022/02/18 07:49:35;;;;;;;8.03;2.08;;;;;;;4.68;79.56;99918.57;1703003;83;25043;-77
2022/02/18 07:52:02;;;;;;;20.95;2.37;;;;;;;4.71;79.53;99919.84;1693106;83;20894;-77
2022/02/18 07:54:28;;;;;;;11.33;2.80;;;;;;;4.73;79.42;99923.25;1705592;83;21482;-77
2022/02/18 07:56:55;;;;;;;14.23;2.75;;;;;;;4.73;79.48;99923.67;1673622;83;20977;-78
2022/02/18 07:59:28;;;;;;;13.35;2.47;;;;;;;4.74;79.50;99924.95;1678351;82;20962;-80
2022/02/18 08:01:54;;;;;;;10.85;1.95;;;;;;;4.83;79.51;99928.77;1697165;83;20937;-79
2022/02/18 08:04:20;;;;;;;10.23;2.12;;;;;;;4.92;79.52;99918.91;1698849;83;20894;-80
2022/02/18 08:06:52;;;;;;;11.68;2.40;;;;;;;5.01;79.58;99929.55;1700121;83;20938;-82
2022/02/18 08:09:18;;;;;;;8.35;2.10;;;;;;;5.11;79.58;99928.22;1705389;83;21394;-80
2022/02/18 08:11:46;;;;;;;9.95;2.25;;;;;;;5.18;79.48;99924.77;1676753;83;20977;-83
2022/02/18 08:14:12;;;;;;;8.43;1.98;;;;;;;5.19;79.37;99923.91;1685661;83;21081;-84
2022/02/18 08:16:38;;;;;;;17.40;2.25;;;;;;;5.25;79.40;99920.43;1668348;83;21117;-80
2022/02/18 08:19:06;;;;;;;11.63;2.58;;;;;;;5.29;79.43;99933.22;1698990;83;20993;-80
2022/02/18 08:21:33;;;;;;;9.30;2.77;;;;;;;5.36;79.37;99930.63;1664810;83;21045;-80
2022/02/18 08:23:59;;;;;;;11.70;2.40;;;;;;;5.48;79.40;99932.69;1689431;83;21092;-81
2022/02/18 08:26:25;;;;;;;11.78;2.10;;;;;;;5.57;79.40;99930.06;1705204;83;20997;-80
2022/02/18 08:28:52;;;;;;;10.23;2.80;;;;;;;5.58;79.15;99936.89;1666463;85;21037;-78
2022/02/18 08:31:19;;;;;;;11.70;1.80;;;;;;;5.62;79.22;99939.86;1693650;82;20886;-80
2022/02/18 08:33:57;;;;;;;10.05;2.45;;;;;;;5.71;79.28;99936.38;1683763;82;21450;-79
2022/02/18 08:36:23;;;;;;;17.27;2.85;;;;;;;5.75;79.29;99932.05;1692417;84;20898;-80
2022/02/18 08:38:49;;;;;;;6.35;2.40;;;;;;;5.80;79.33;99928.59;1685807;84;20871;-78
2022/02/18 08:41:16;;;;;;;11.35;2.70;;;;;;;5.86;79.08;99948.22;1656149;85;20890;-80
2022/02/18 08:43:42;;;;;;;16.43;3.40;;;;;;;5.88;79.19;99946.06;1643265;86;20978;-79
2022/02/18 08:46:09;;;;;;;10.08;2.12;;;;;;;5.94;79.04;99945.20;1657835;86;21194;-81
2022/02/18 08:48:37;;;;;;;6.42;1.70;;;;;;;5.94;79.05;99952.46;1650094;84;21119;-82
2022/02/18 08:51:03;;;;;;;12.78;3.12;;;;;;;5.97;78.86;99955.00;1652619;86;21149;-82
2022/02/18 08:53:29;;;;;;;9.63;2.20;;;;;;;6.01;79.04;99951.98;1645167;86;21109;-83
2022/02/18 08:55:55;;;;;;;9.80;2.33;;;;;;;6.08;79.00;99953.63;1641904;85;21091;-82
2022/02/18 08:58:21;;;;;;;13.38;2.67;;;;;;;6.17;78.97;99964.25;1640107;86;21001;-83
2022/02/18 09:00:49;;;;;;;;;;;;;;;6.24;78.99;99961.59;1649620;86;21549;-80
2022/02/18 09:03:15;;;;;;;8.90;2.08;;;;;;;6.29;78.66;99961.55;1632644;85;20526;-81
2022/02/18 09:05:41;;;;;;;6.37;2.15;;;;;;;6.29;78.88;99952.56;1639632;86;21525;-81
2022/02/18 09:08:07;;;;;;;12.75;2.87;;;;;;;6.33;78.65;99968.36;1643605;86;21077;-81
2022/02/18 09:10:33;;;;;;;11.73;2.80;;;;;;;6.39;78.72;99963.17;1637644;84;20901;-81
2022/02/18 09:12:59;;;;;;;9.78;1.75;;;;;;;6.46;78.81;99975.52;1644320;86;21144;-82
2022/02/18 09:15:26;;;;;;;10.63;2.40;;;;;;;6.46;78.42;99975.09;1646920;86;21521;-80
2022/02/18 09:17:52;;;;;;;10.93;2.70;;;;;;;6.37;78.44;99968.75;1643162;85;21124;-80
2022/02/18 09:20:18;;;;;;;14.03;2.17;;;;;;;6.35;78.54;99966.62;1650032;86;21581;-81
2022/02/18 09:22:44;;;;;;;13.27;3.00;;;;;;;6.40;78.56;99964.02;1639433;85;20950;-80
2022/02/18 09:25:10;;;;;;;16.45;2.62;;;;;;;6.43;78.61;99959.70;1649075;86;21493;-81
2022/02/18 09:27:36;;;;;;;10.15;2.10;;;;;;;6.47;78.56;99976.79;1638034;86;21503;-81
2022/02/18 09:30:04;;;;;;;9.00;2.58;;;;;;;6.53;78.62;99966.46;1633130;86;21518;-79
2022/02/18 09:32:30;;;;;;;10.30;2.40;;;;;;;6.64;78.66;99965.92;1639552;85;20942;-80
2022/02/18 09:35:01;;;;;;;16.60;3.10;;;;;;;6.75;78.68;99963.23;1632853;86;21506;-78
2022/02/18 09:37:28;;;;;;;13.58;3.08;;;;;;;6.80;78.55;99960.59;1638426;86;21885;-79
2022/02/18 09:39:54;;;;;;;13.18;2.92;;;;;;;6.81;78.34;99961.85;1633689;86;21459;-81
2022/02/18 09:42:20;;;;;;;10.90;2.30;;;;;;;6.82;78.24;99966.12;1649489;86;20946;-80
2022/02/18 09:44:49;;;;;;;16.48;3.00;;;;;;;6.86;78.20;99963.09;1664268;85;21449;-80
2022/02/18 09:47:16;;;;;;;12.18;2.40;;;;;;;6.89;78.25;99956.20;1698657;83;21442;-80
2022/02/18 09:49:45;;;;;;;7.22;2.52;;;;;;;6.94;78.23;99969.84;1702130;83;20883;-81
2022/02/18 09:52:13;;;;;;;12.18;2.25;;;;;;;7.00;78.17;99970.64;1675899;85;20945;-82
2022/02/18 09:54:39;;;;;;;6.67;2.25;;;;;;;7.04;78.18;99964.16;1654093;83;20922;-81
2022/02/18 09:57:06;;;;;;;17.65;2.33;;;;;;;7.11;78.17;99965.79;1700441;83;21036;-80
2022/02/18 09:59:33;;;;;;;10.40;2.45;;;;;;;7.17;78.17;99956.72;1674229;85;27078;-79
2022/02/18 10:02:01;;;;;;;7.80;2.15;;;;;;;7.22;78.08;99947.22;1693022;83;21619;-80
2022/02/18 10:04:27;;;;;;;11.68;2.15;;;;;;;7.26;78.00;99940.32;1703913;83;21573;-80
2022/02/18 10:06:53;;;;;;;15.93;2.07;;;;;;;7.33;77.90;99939.34;1696284;83;21200;-78
2022/02/18 10:09:39;;;;;;;8.60;1.90;;;;;;;7.38;77.79;99935.42;1702640;83;20925;-78
2022/02/18 10:12:13;;;;;;;7.72;1.98;;;;;;;7.37;77.72;99922.14;1630898;86;21640;-78
2022/02/18 10:15:07;;;;;;;9.08;2.98;;;;;;;7.30;77.66;99918.80;1655343;85;21491;-78
2022/02/18 10:17:43;;;;;;;11.95;3.40;;;;;;;7.28;77.69;99917.97;1647146;85;21542;-77
2022/02/18 10:20:28;;;;;;;10.38;2.17;;;;;;;7.29;77.72;99909.39;1657113;86;21658;-77
2022/02/18 10:23:04;;;;;;;12.00;2.60;;;;;;;7.30;77.51;99895.66;1631599;86;21112;-77
2022/02/18 10:25:35;;;;;;;11.73;2.35;;;;;;;7.26;77.46;99902.60;1639247;86;21025;-76
2022/02/18 10:28:04;;;;;;;9.98;2.92;;;;;;;7.25;77.53;99904.76;1641663;86;20967;-76
2022/02/18 10:30:31;;;;;;;7.40;1.90;;;;;;;7.25;77.53;99901.34;1647045;86;20938;-76
2022/02/18 10:33:02;;;;;;;12.82;6.10;;;;;;;7.23;77.53;99891.07;1666289;85;21117;-76
2022/02/18 10:35:34;;;;;;;13.78;4.08;;;;;;;7.24;77.29;99890.64;1665227;85;21030;-77
2022/02/18 10:38:02;;;;;;;18.25;4.17;;;;;;;7.27;77.28;99886.30;1668569;85;21074;-76
2022/02/18 10:40:31;;;;;;;13.72;4.20;;;;;;;7.31;77.25;99890.49;1663804;85;21062;-77
2022/02/18 10:43:10;;;;;;;18.50;7.03;;;;;;;7.33;77.21;99892.20;1674116;85;21499;-76
2022/02/18 10:45:52;;;;;;;15.90;5.80;;;;;;;7.36;77.08;99879.30;1661806;85;21642;-75
2022/02/18 10:48:21;;;;;;;9.00;3.50;;;;;;;7.35;77.01;99874.59;1664483;85;21496;-75
2022/02/18 10:51:19;;;;;;;14.93;3.65;;;;;;;7.34;76.96;99869.47;1678578;85;21595;-75
2022/02/18 10:53:47;;;;;;;;;;;;;;;7.28;76.77;99863.54;1678694;85;21516;-74
2022/02/18 10:56:16;;;;;;;9.75;2.70;;;;;;;7.28;76.39;99865.27;1669174;85;20142;-75
2022/02/18 10:58:48;;;;;;;13.38;3.47;;;;;;;7.30;76.77;99860.94;1673205;85;20943;-75
2022/02/18 11:01:23;;;;;;;13.15;5.58;;;;;;;7.30;76.58;99850.22;1675499;85;20940;-75
2022/02/18 11:04:02;;;;;;;13.25;3.55;;;;;;;7.26;76.47;99851.17;1679792;85;20987;-75
2022/02/18 11:06:32;;;;;;;6.83;2.95;;;;;;;7.26;76.38;99847.75;1658961;85;20995;-75
2022/02/18 11:09:01;;;;;;;8.45;2.35;;;;;;;7.29;76.54;99844.67;1673086;85;21456;-76
2022/02/18 11:11:36;;;;;;;6.90;2.75;;;;;;;7.33;76.52;99840.77;1661728;85;21500;-76
2022/02/18 11:14:05;;;;;;;12.53;5.47;;;;;;;7.31;76.35;99839.06;1658948;85;20996;-76
2022/02/18 11:16:44;;;;;;;14.63;6.80;;;;;;;7.37;76.34;99833.41;1673942;85;20920;-76
2022/02/18 11:19:10;;;;;;;13.40;2.62;;;;;;;7.40;76.28;99831.64;1661298;85;20983;-76
2022/02/18 11:21:36;;;;;;;6.47;3.87;;;;;;;7.40;76.24;99830.80;1659236;85;20928;-76
2022/02/18 11:24:05;;;;;;;11.93;2.53;;;;;;;7.40;76.27;99828.22;1666169;85;20900;-76
2022/02/18 11:26:32;;;;;;;11.80;2.02;;;;;;;7.43;76.21;99823.03;1650857;86;20971;-76
2022/02/18 11:29:02;;;;;;;7.70;2.50;;;;;;;7.43;76.02;99821.31;1661370;84;20905;-75
2022/02/18 11:31:58;;;;;;;6.10;1.90;;;;;;;7.44;76.08;99816.58;1658767;85;20955;-75
2022/02/18 11:34:44;;;;;;;8.83;4.35;;;;;;;7.43;75.89;99812.30;1673725;85;20968;-75
2022/02/18 11:37:51;;;;;;;7.60;2.12;;;;;;;7.44;75.82;99818.30;1664784;85;20940;-75
2022/02/18 11:40:44;;;;;;;13.85;4.42;;;;;;;7.46;75.72;99809.69;1663999;85;20960;-75
2022/02/18 11:43:34;;;;;;;10.70;4.20;;;;;;;7.47;75.62;99799.81;1675144;85;20988;-75